Home > Products > Valid Products > TAF

000
FTUS45 KPUB 282138 AAB
TAFPUB
TAF AMD
KPUB 282138Z 2822/2918 03015G25KT P6SM VCTS SCT060CB BKN110
     FM290100 01008KT P6SM SCT090 SCT150
     FM290500 33006KT P6SM FEW150=



000
FTUS45 KPUB 282138 AAB
TAFPUB
TAF AMD
KPUB 282138Z 2822/2918 03015G25KT P6SM VCTS SCT060CB BKN110
     FM290100 01008KT P6SM SCT090 SCT150
     FM290500 33006KT P6SM FEW150=



000
FTUS45 KPUB 282012 AAA
TAFALS
TAF AMD
KALS 282012Z 2820/2918 32012KT P6SM SCT100 SCT140
     FM290300 VRB06KT P6SM FEW150=



000
FTUS45 KPUB 282012 AAA
TAFALS
TAF AMD
KALS 282012Z 2820/2918 32012KT P6SM SCT100 SCT140
     FM290300 VRB06KT P6SM FEW150=



000
FTUS45 KPUB 281722
TAFCOS
TAF
KCOS 281722Z 2818/2918 VRB06KT P6SM VCSH SCT080 BKN120
     FM282000 01009KT P6SM VCTS SCT050CB BKN100
     FM290100 03010KT P6SM SCT080 SCT140
     FM290500 35008KT P6SM FEW150=



000
FTUS45 KPUB 281722
TAFALS
TAF
KALS 281722Z 2818/2918 VRB06KT P6SM VCTS SCT050CB BKN100
     FM282300 01008KT P6SM SCT100 SCT140
     FM290300 VRB06KT P6SM FEW150=



000
FTUS45 KPUB 281722
TAFPUB
TAF
KPUB 281722Z 2818/2918 VRB06KT P6SM SCT080 BKN120
     FM282100 03012KT P6SM VCTS SCT060CB BKN110
     FM290200 01008KT P6SM SCT090 SCT150
     FM290500 33006KT P6SM FEW150=



000
FTUS45 KPUB 281722
TAFCOS
TAF
KCOS 281722Z 2818/2918 VRB06KT P6SM VCSH SCT080 BKN120
     FM282000 01009KT P6SM VCTS SCT050CB BKN100
     FM290100 03010KT P6SM SCT080 SCT140
     FM290500 35008KT P6SM FEW150=



000
FTUS45 KPUB 281722
TAFPUB
TAF
KPUB 281722Z 2818/2918 VRB06KT P6SM SCT080 BKN120
     FM282100 03012KT P6SM VCTS SCT060CB BKN110
     FM290200 01008KT P6SM SCT090 SCT150
     FM290500 33006KT P6SM FEW150=



000
FTUS45 KPUB 281722
TAFALS
TAF
KALS 281722Z 2818/2918 VRB06KT P6SM VCTS SCT050CB BKN100
     FM282300 01008KT P6SM SCT100 SCT140
     FM290300 VRB06KT P6SM FEW150=



000
FTUS45 KPUB 281123
TAFCOS
TAF
KCOS 281123Z 2812/2912 34008KT P6SM SCT120 SCT200
     FM281600 36010KT P6SM SCT060 BKN120
     FM282000 01012KT P6SM VCTS SCT050CB BKN100
     FM290100 03010KT P6SM SCT080 SCT140
     FM290500 35008KT P6SM FEW150=



000
FTUS45 KPUB 281123
TAFPUB
TAF
KPUB 281123Z 2812/2912 33007KT P6SM SCT130 SCT200
     FM281700 36010KT P6SM SCT080 BKN120
     FM282100 03012KT P6SM VCTS SCT060CB BKN110
     FM290200 01008KT P6SM SCT090 SCT150
     FM290500 33006KT P6SM FEW150=



000
FTUS45 KPUB 281123
TAFALS
TAF
KALS 281123Z 2812/2912 23006KT P6SM SCT080 BKN140
     FM281800 34008KT P6SM VCTS SCT050CB BKN100
     FM282300 01008KT P6SM SCT100 SCT140
     FM290300 VRB06KT P6SM FEW150=



000
FTUS45 KPUB 281123
TAFCOS
TAF
KCOS 281123Z 2812/2912 34008KT P6SM SCT120 SCT200
     FM281600 36010KT P6SM SCT060 BKN120
     FM282000 01012KT P6SM VCTS SCT050CB BKN100
     FM290100 03010KT P6SM SCT080 SCT140
     FM290500 35008KT P6SM FEW150=



000
FTUS45 KPUB 281123
TAFALS
TAF
KALS 281123Z 2812/2912 23006KT P6SM SCT080 BKN140
     FM281800 34008KT P6SM VCTS SCT050CB BKN100
     FM282300 01008KT P6SM SCT100 SCT140
     FM290300 VRB06KT P6SM FEW150=



000
FTUS45 KPUB 281123
TAFPUB
TAF
KPUB 281123Z 2812/2912 33007KT P6SM SCT130 SCT200
     FM281700 36010KT P6SM SCT080 BKN120
     FM282100 03012KT P6SM VCTS SCT060CB BKN110
     FM290200 01008KT P6SM SCT090 SCT150
     FM290500 33006KT P6SM FEW150=



000
FTUS45 KPUB 281036 AAA
TAFPUB
TAF AMD
KPUB 281036Z 2811/2906 33008KT P6SM SCT080 SCT140
     FM281800 36010KT P6SM SCT060 BKN140
     FM282200 01014KT P6SM VCTS SCT060CB BKN140
     FM290200 03008KT P6SM SCT090 SCT150=



000
FTUS45 KPUB 281036 AAA
TAFPUB
TAF AMD
KPUB 281036Z 2811/2906 33008KT P6SM SCT080 SCT140
     FM281800 36010KT P6SM SCT060 BKN140
     FM282200 01014KT P6SM VCTS SCT060CB BKN140
     FM290200 03008KT P6SM SCT090 SCT150=



000
FTUS45 KPUB 280540
TAFCOS
TAF
KCOS 280540Z 2806/2906 01012G22KT P6SM SCT060 SCT100 SCT200
     FM280800 36010KT P6SM SCT100 SCT150
     FM281600 36012KT P6SM VCSH SCT060 BKN100
     FM282000 01015KT P6SM VCTS SCT050CB BKN120
     FM290100 03009KT P6SM SCT080 SCT140=



000
FTUS45 KPUB 280540
TAFALS
TAF
KALS 280540Z 2806/2906 23007KT P6SM SCT100 SCT150
     FM281600 34007KT P6SM SCT050 BKN120
     FM281800 01007KT P6SM VCSH SCT050 BKN080
     FM282100 34008KT P6SM VCTS SCT060CB SCT140
     FM290100 04007KT P6SM SCT100 SCT140=



000
FTUS45 KPUB 280540
TAFPUB
TAF
KPUB 280540Z 2806/2906 36012G22KT P6SM SCT080 SCT140
     FM281800 36010KT P6SM SCT060 BKN140
     FM282200 01014KT P6SM VCTS SCT060CB BKN140
     FM290200 03008KT P6SM SCT090 SCT150=



000
FTUS45 KPUB 280540
TAFPUB
TAF
KPUB 280540Z 2806/2906 36012G22KT P6SM SCT080 SCT140
     FM281800 36010KT P6SM SCT060 BKN140
     FM282200 01014KT P6SM VCTS SCT060CB BKN140
     FM290200 03008KT P6SM SCT090 SCT150=



000
FTUS45 KPUB 280540
TAFALS
TAF
KALS 280540Z 2806/2906 23007KT P6SM SCT100 SCT150
     FM281600 34007KT P6SM SCT050 BKN120
     FM281800 01007KT P6SM VCSH SCT050 BKN080
     FM282100 34008KT P6SM VCTS SCT060CB SCT140
     FM290100 04007KT P6SM SCT100 SCT140=



000
FTUS45 KPUB 280540
TAFCOS
TAF
KCOS 280540Z 2806/2906 01012G22KT P6SM SCT060 SCT100 SCT200
     FM280800 36010KT P6SM SCT100 SCT150
     FM281600 36012KT P6SM VCSH SCT060 BKN100
     FM282000 01015KT P6SM VCTS SCT050CB BKN120
     FM290100 03009KT P6SM SCT080 SCT140=



000
FTUS45 KPUB 280502 AAC
TAFCOS
TAF AMD
KCOS 280502Z 2805/2824 01012G22KT P6SM SCT060 SCT080 BKN200
     FM280700 36010KT P6SM SCT060 BKN100
     FM281400 36012KT P6SM VCSH SCT060 BKN100
     FM281800 01018KT P6SM VCTS SCT050CB BKN100=



000
FTUS45 KPUB 280502 AAC
TAFCOS
TAF AMD
KCOS 280502Z 2805/2824 01012G22KT P6SM SCT060 SCT080 BKN200
     FM280700 36010KT P6SM SCT060 BKN100
     FM281400 36012KT P6SM VCSH SCT060 BKN100
     FM281800 01018KT P6SM VCTS SCT050CB BKN100=



000
FTUS45 KPUB 280407 AAC
TAFPUB
TAF AMD
KPUB 280407Z 2804/2824 33013KT P6SM SCT060 SCT080 SCT150
     FM280500 34010KT P6SM SCT080 SCT140
     FM281800 36010KT P6SM SCT060 BKN140
     FM282000 01010KT P6SM VCTS SCT060CB BKN100=



000
FTUS45 KPUB 280407 AAC
TAFPUB
TAF AMD
KPUB 280407Z 2804/2824 33013KT P6SM SCT060 SCT080 SCT150
     FM280500 34010KT P6SM SCT080 SCT140
     FM281800 36010KT P6SM SCT060 BKN140
     FM282000 01010KT P6SM VCTS SCT060CB BKN100=



000
FTUS45 KPUB 280316 AAB
TAFCOS
TAF AMD
KCOS 280316Z 2803/2824 01012KT P6SM VCTS SCT060CB SCT100 BKN200
     FM280500 36008KT P6SM SCT060 BKN100
     FM281400 36012KT P6SM VCSH SCT060 BKN100
     FM281800 01018KT P6SM VCTS SCT050CB BKN100=



000
FTUS45 KPUB 280316 AAB
TAFCOS
TAF AMD
KCOS 280316Z 2803/2824 01012KT P6SM VCTS SCT060CB SCT100 BKN200
     FM280500 36008KT P6SM SCT060 BKN100
     FM281400 36012KT P6SM VCSH SCT060 BKN100
     FM281800 01018KT P6SM VCTS SCT050CB BKN100=



000
FTUS45 KPUB 280156 AAB
TAFPUB
TAF AMD
KPUB 280156Z 2802/2824 28012G22KT P6SM SCT080 BKN140
     FM280400 30008KT P6SM SCT100 SCT140
     FM281800 36010KT P6SM SCT060 BKN140
     FM282000 01010KT P6SM VCTS SCT060CB BKN100=



000
FTUS45 KPUB 280050 AAA
TAFCOS
TAF AMD
KCOS 280050Z 2801/2824 33012KT P6SM VCTS SCT060CB SCT100 BKN200
     FM280400 34008KT P6SM SCT060 BKN100
     FM281400 36012KT P6SM VCSH SCT060 BKN100
     FM281800 01018KT P6SM VCTS SCT050CB BKN100=



000
FTUS45 KPUB 280050 AAA
TAFCOS
TAF AMD
KCOS 280050Z 2801/2824 33012KT P6SM VCTS SCT060CB SCT100 BKN200
     FM280400 34008KT P6SM SCT060 BKN100
     FM281400 36012KT P6SM VCSH SCT060 BKN100
     FM281800 01018KT P6SM VCTS SCT050CB BKN100=



000
FTUS45 KPUB 272323
TAFCOS
TAF
KCOS 272323Z 2800/2824 19012KT P6SM VCTS SCT060CB BKN100
     FM280200 35012KT P6SM VCTS SCT060CB BKN100
     FM280400 34008KT P6SM SCT060 BKN100
     FM281400 36012KT P6SM VCSH SCT060 BKN100
     FM281800 01018KT P6SM VCTS SCT050CB BKN100=



000
FTUS45 KPUB 272323
TAFALS
TAF
KALS 272323Z 2800/2824 24012G22KT P6SM SCT100 SCT150
     FM280200 23007KT P6SM SCT100 SCT150
     FM281600 34007KT P6SM SCT050 BKN100
     FM281800 01007KT P6SM VCSH SCT050 BKN080
     FM282100 34008KT P6SM SCT060 SCT100=



000
FTUS45 KPUB 272323
TAFPUB
TAF
KPUB 272323Z 2800/2824 14012KT P6SM VCTS SCT080CB BKN140
     FM280300 01009KT P6SM SCT080 BKN140
     FM280500 30008KT P6SM SCT100 SCT140
     FM281800 36010KT P6SM SCT060 BKN140
     FM282000 01010KT P6SM VCTS SCT060CB BKN100=



000
FTUS45 KPUB 272323
TAFPUB
TAF
KPUB 272323Z 2800/2824 14012KT P6SM VCTS SCT080CB BKN140
     FM280300 01009KT P6SM SCT080 BKN140
     FM280500 30008KT P6SM SCT100 SCT140
     FM281800 36010KT P6SM SCT060 BKN140
     FM282000 01010KT P6SM VCTS SCT060CB BKN100=



000
FTUS45 KPUB 272323
TAFALS
TAF
KALS 272323Z 2800/2824 24012G22KT P6SM SCT100 SCT150
     FM280200 23007KT P6SM SCT100 SCT150
     FM281600 34007KT P6SM SCT050 BKN100
     FM281800 01007KT P6SM VCSH SCT050 BKN080
     FM282100 34008KT P6SM SCT060 SCT100=



000
FTUS45 KPUB 272323
TAFCOS
TAF
KCOS 272323Z 2800/2824 19012KT P6SM VCTS SCT060CB BKN100
     FM280200 35012KT P6SM VCTS SCT060CB BKN100
     FM280400 34008KT P6SM SCT060 BKN100
     FM281400 36012KT P6SM VCSH SCT060 BKN100
     FM281800 01018KT P6SM VCTS SCT050CB BKN100=



000
FTUS45 KPUB 271730
TAFCOS
TAF
KCOS 271730Z 2718/2818 16010KT P6SM SCT100 BKN150
     FM272000 18012KT P6SM VCTS SCT060CB BKN100
      TEMPO 2722/2724 VRB20G32KT 3SM -TSRA BKN030CB
     FM280200 35012KT P6SM VCTS SCT060CB BKN100
     FM280400 34008KT P6SM SCT060 BKN100=



000
FTUS45 KPUB 271730
TAFALS
TAF
KALS 271730Z 2718/2818 23009KT P6SM SCT120 SCT200
     FM272100 23015G25KT P6SM SCT100 BKN150
     FM280100 23007KT P6SM SCT100 BKN150=



000
FTUS45 KPUB 271730
TAFPUB
TAF
KPUB 271730Z 2718/2818 14008KT P6SM SCT100 SCT200
     FM272100 14012KT P6SM SCT100 BKN150
     FM280000 15012KT P6SM VCTS SCT080CB BKN120
     FM280300 34009KT P6SM BKN120=



000
FTUS45 KPUB 271730
TAFALS
TAF
KALS 271730Z 2718/2818 23009KT P6SM SCT120 SCT200
     FM272100 23015G25KT P6SM SCT100 BKN150
     FM280100 23007KT P6SM SCT100 BKN150=



000
FTUS45 KPUB 271730
TAFPUB
TAF
KPUB 271730Z 2718/2818 14008KT P6SM SCT100 SCT200
     FM272100 14012KT P6SM SCT100 BKN150
     FM280000 15012KT P6SM VCTS SCT080CB BKN120
     FM280300 34009KT P6SM BKN120=



000
FTUS45 KPUB 271730
TAFCOS
TAF
KCOS 271730Z 2718/2818 16010KT P6SM SCT100 BKN150
     FM272000 18012KT P6SM VCTS SCT060CB BKN100
      TEMPO 2722/2724 VRB20G32KT 3SM -TSRA BKN030CB
     FM280200 35012KT P6SM VCTS SCT060CB BKN100
     FM280400 34008KT P6SM SCT060 BKN100=



000
FTUS45 KPUB 271506 AAC
TAFPUB
TAF AMD
KPUB 271506Z 2715/2812 VRB05KT P6SM FEW006 BKN130
     FM271700 14008KT P6SM SCT100 SCT200
     FM272100 14012KT P6SM SCT100 BKN150
     FM280000 15012KT P6SM VCTS SCT080CB BKN120
     FM280300 34009KT P6SM BKN120=



000
FTUS45 KPUB 271506 AAC
TAFPUB
TAF AMD
KPUB 271506Z 2715/2812 VRB05KT P6SM FEW006 BKN130
     FM271700 14008KT P6SM SCT100 SCT200
     FM272100 14012KT P6SM SCT100 BKN150
     FM280000 15012KT P6SM VCTS SCT080CB BKN120
     FM280300 34009KT P6SM BKN120=



000
FTUS45 KPUB 271432 AAB
TAFPUB
TAF AMD
KPUB 271432Z 2715/2812 VRB05KT P6SM SCT006 BKN130
      TEMPO 2715/2716 BKN006
     FM271700 14008KT P6SM SCT100 SCT200
     FM272100 14012KT P6SM SCT100 BKN150
     FM280000 15012KT P6SM VCTS SCT080CB BKN120
     FM280300 34009KT P6SM BKN120=



000
FTUS45 KPUB 271432 AAB
TAFPUB
TAF AMD
KPUB 271432Z 2715/2812 VRB05KT P6SM SCT006 BKN130
      TEMPO 2715/2716 BKN006
     FM271700 14008KT P6SM SCT100 SCT200
     FM272100 14012KT P6SM SCT100 BKN150
     FM280000 15012KT P6SM VCTS SCT080CB BKN120
     FM280300 34009KT P6SM BKN120=



000
FTUS45 KPUB 271402 AAA
TAFCOS
TAF AMD
KCOS 271402Z 2714/2812 14007KT P6SM SCT010 BKN100
      TEMPO 2714/2716 BKN010
     FM271700 16010KT P6SM SCT100 BKN150
     FM272000 18012KT P6SM VCTS SCT060CB BKN100
     FM280200 35012KT P6SM VCTS SCT060CB BKN100
     FM280400 34008KT P6SM SCT060 BKN100=



000
FTUS45 KPUB 271402 AAA
TAFCOS
TAF AMD
KCOS 271402Z 2714/2812 14007KT P6SM SCT010 BKN100
      TEMPO 2714/2716 BKN010
     FM271700 16010KT P6SM SCT100 BKN150
     FM272000 18012KT P6SM VCTS SCT060CB BKN100
     FM280200 35012KT P6SM VCTS SCT060CB BKN100
     FM280400 34008KT P6SM SCT060 BKN100=



000
FTUS45 KPUB 271137
TAFPUB
TAF
KPUB 271137Z 2712/2812 VRB05KT P6SM BKN130
     FM271700 14008KT P6SM SCT100 SCT200
     FM272100 14012KT P6SM SCT100 BKN150
     FM280000 15012KT P6SM VCTS SCT080CB BKN120
     FM280300 34009KT P6SM BKN120=



000
FTUS45 KPUB 271137
TAFCOS
TAF
KCOS 271137Z 2712/2812 VRB06KT P6SM SCT010 BKN110
     FM271700 16010KT P6SM SCT100 BKN150
     FM272000 18012KT P6SM VCTS SCT060CB BKN100
     FM280200 35012KT P6SM VCTS SCT060CB BKN100
     FM280400 34008KT P6SM SCT060 BKN100=



000
FTUS45 KPUB 271137
TAFALS
TAF
KALS 271137Z 2712/2812 VRB05KT P6SM BKN120
     FM271700 23009KT P6SM SCT120 SCT200
     FM272100 23015G25KT P6SM SCT100 BKN150
     FM280100 23007KT P6SM SCT100 BKN150=



000
FTUS45 KPUB 271137
TAFCOS
TAF
KCOS 271137Z 2712/2812 VRB06KT P6SM SCT010 BKN110
     FM271700 16010KT P6SM SCT100 BKN150
     FM272000 18012KT P6SM VCTS SCT060CB BKN100
     FM280200 35012KT P6SM VCTS SCT060CB BKN100
     FM280400 34008KT P6SM SCT060 BKN100=



000
FTUS45 KPUB 271137
TAFPUB
TAF
KPUB 271137Z 2712/2812 VRB05KT P6SM BKN130
     FM271700 14008KT P6SM SCT100 SCT200
     FM272100 14012KT P6SM SCT100 BKN150
     FM280000 15012KT P6SM VCTS SCT080CB BKN120
     FM280300 34009KT P6SM BKN120=



000
FTUS45 KPUB 271137
TAFALS
TAF
KALS 271137Z 2712/2812 VRB05KT P6SM BKN120
     FM271700 23009KT P6SM SCT120 SCT200
     FM272100 23015G25KT P6SM SCT100 BKN150
     FM280100 23007KT P6SM SCT100 BKN150=



000
FTUS45 KPUB 270534
TAFALS
TAF
KALS 270534Z 2706/2806 VRB05KT P6SM BKN080 OVC100
     FM271800 23012G22KT P6SM SCT060 SCT100 BKN200
     FM280200 VRB05KT P6SM FEW080 SCT100 SCT200=



000
FTUS45 KPUB 270534
TAFPUB
TAF
KPUB 270534Z 2706/2806 09007KT P6SM SCT060 BKN100
     FM270800 VRB05KT P6SM SCT025 SCT110 BKN200
     FM271900 16008KT P6SM SCT050 BKN070
     FM280300 34010KT P6SM SCT070 BKN120=



000
FTUS45 KPUB 270534
TAFCOS
TAF
KCOS 270534Z 2706/2806 16005KT P6SM -SHRA VCTS SCT035 BKN045CB
     FM271000 01006KT P6SM SCT015 BKN035
     FM271800 15010KT P6SM VCTS SCT030 BKN050CB
     FM280200 36010KT P6SM SCT045 SCT060 BKN100=



000
FTUS45 KPUB 270534
TAFCOS
TAF
KCOS 270534Z 2706/2806 16005KT P6SM -SHRA VCTS SCT035 BKN045CB
     FM271000 01006KT P6SM SCT015 BKN035
     FM271800 15010KT P6SM VCTS SCT030 BKN050CB
     FM280200 36010KT P6SM SCT045 SCT060 BKN100=



000
FTUS45 KPUB 270534
TAFPUB
TAF
KPUB 270534Z 2706/2806 09007KT P6SM SCT060 BKN100
     FM270800 VRB05KT P6SM SCT025 SCT110 BKN200
     FM271900 16008KT P6SM SCT050 BKN070
     FM280300 34010KT P6SM SCT070 BKN120=



000
FTUS45 KPUB 270534
TAFALS
TAF
KALS 270534Z 2706/2806 VRB05KT P6SM BKN080 OVC100
     FM271800 23012G22KT P6SM SCT060 SCT100 BKN200
     FM280200 VRB05KT P6SM FEW080 SCT100 SCT200=



000
FTUS45 KPUB 262324
TAFPUB
TAF
KPUB 262324Z 2700/2724 11005KT P6SM -SHRA VCTS BKN070CB BKN120
     FM270600 VRB05KT P6SM FEW070 SCT110 OVC200
     FM270800 VRB05KT P6SM SCT025 SCT110 BKN200
     FM271900 16008KT P6SM SCT030 BKN060=



000
FTUS45 KPUB 262324
TAFALS
TAF
KALS 262324Z 2700/2724 12010KT P6SM -SHRA VCTS SCT070CB OVC090
     FM270600 VRB05KT P6SM SCT050 BKN100
     FM271800 23012G22KT P6SM SCT060 SCT100 BKN200=



000
FTUS45 KPUB 262324
TAFCOS
TAF
KCOS 262324Z 2700/2724 VRB05KT P6SM -SHRA VCTS SCT060CB BKN100
      OVC200
     FM270800 VRB05KT P6SM FEW060 SCT100 OVC200
     FM271000 01006KT P6SM SCT015 SCT100 BKN200
     FM271800 15010KT P6SM SCT030 BKN050=



000
FTUS45 KPUB 262324
TAFALS
TAF
KALS 262324Z 2700/2724 12010KT P6SM -SHRA VCTS SCT070CB OVC090
     FM270600 VRB05KT P6SM SCT050 BKN100
     FM271800 23012G22KT P6SM SCT060 SCT100 BKN200=



000
FTUS45 KPUB 262324
TAFCOS
TAF
KCOS 262324Z 2700/2724 VRB05KT P6SM -SHRA VCTS SCT060CB BKN100
      OVC200
     FM270800 VRB05KT P6SM FEW060 SCT100 OVC200
     FM271000 01006KT P6SM SCT015 SCT100 BKN200
     FM271800 15010KT P6SM SCT030 BKN050=



000
FTUS45 KPUB 262324
TAFPUB
TAF
KPUB 262324Z 2700/2724 11005KT P6SM -SHRA VCTS BKN070CB BKN120
     FM270600 VRB05KT P6SM FEW070 SCT110 OVC200
     FM270800 VRB05KT P6SM SCT025 SCT110 BKN200
     FM271900 16008KT P6SM SCT030 BKN060=



000
FTUS45 KPUB 262152 AAB
TAFCOS
TAF AMD
KCOS 262152Z 2622/2718 29009KT P6SM VCTS SCT050CB BKN090
     FM270200 34007KT P6SM VCTS SCT050CB BKN070
     FM270500 01007KT P6SM BKN090
     FM270800 VRB06KT P6SM BKN015
     FM271600 18007KT P6SM SCT030 BKN050=



000
FTUS45 KPUB 262152 AAB
TAFCOS
TAF AMD
KCOS 262152Z 2622/2718 29009KT P6SM VCTS SCT050CB BKN090
     FM270200 34007KT P6SM VCTS SCT050CB BKN070
     FM270500 01007KT P6SM BKN090
     FM270800 VRB06KT P6SM BKN015
     FM271600 18007KT P6SM SCT030 BKN050=



000
FTUS45 KPUB 262005 AAA
TAFCOS
TAF AMD
KCOS 262005Z 2620/2718 24009KT P6SM VCTS SCT050CB BKN090
      TEMPO 2620/2624 VRB20G32KT 3SM -TSRA BKN020CB
     FM270200 34007KT P6SM VCTS SCT050CB BKN070
     FM270500 01007KT P6SM BKN090
     FM270800 VRB06KT P6SM BKN015
     FM271600 18007KT P6SM SCT030 BKN050=



000
FTUS45 KPUB 261724 CCA
TAFCOS
TAF COR
KCOS 261724Z 2618/2718 VRB06KT P6SM VCSH SCT020 BKN100
      TEMPO 2618/2619 BKN020
     FM261900 18009KT P6SM VCTS SCT050CB BKN090
      TEMPO 2621/2624 VRB20G32KT 3SM -TSRA BKN020CB
     FM270200 34007KT P6SM VCTS SCT050CB BKN070
     FM270500 01007KT P6SM BKN090
     FM270800 VRB06KT P6SM BKN015
     FM271600 18007KT P6SM SCT030 BKN050=



000
FTUS45 KPUB 261724 CCA
TAFCOS
TAF COR
KCOS 261724Z 2618/2718 VRB06KT P6SM VCSH SCT020 BKN100
      TEMPO 2618/2619 BKN020
     FM261900 18009KT P6SM VCTS SCT050CB BKN090
      TEMPO 2621/2624 VRB20G32KT 3SM -TSRA BKN020CB
     FM270200 34007KT P6SM VCTS SCT050CB BKN070
     FM270500 01007KT P6SM BKN090
     FM270800 VRB06KT P6SM BKN015
     FM271600 18007KT P6SM SCT030 BKN050=



000
FTUS45 KPUB 261720
TAFCOS
TAF
KCOS 261720Z 2618/2718 18009KT P6SM VCTS SCT050CB BKN090
      TEMPO 2621/2624 VRB20G32KT 3SM -TSRA BKN020CB
     FM270200 34007KT P6SM VCTS SCT050CB BKN070
     FM270500 01007KT P6SM BKN090
     FM270800 VRB06KT P6SM BKN015
     FM271600 18007KT P6SM SCT030 BKN050=



000
FTUS45 KPUB 261720
TAFALS
TAF
KALS 261720Z 2618/2718 VRB05KT P6SM SCT080 BKN120
     FM262000 22010KT P6SM VCTS SCT070CB BKN100
     FM270300 VRB05KT P6SM SCT050 BKN100=



000
FTUS45 KPUB 261720
TAFPUB
TAF
KPUB 261720Z 2618/2718 12007KT P6SM BKN100
     FM262200 13012KT P6SM VCTS SCT060CB BKN080
     FM270400 VRB06KT P6SM BKN100
     FM270800 VRB05KT P6SM BKN015
     FM271600 VRB05KT P6SM SCT030 BKN060=



000
FTUS45 KPUB 261720
TAFALS
TAF
KALS 261720Z 2618/2718 VRB05KT P6SM SCT080 BKN120
     FM262000 22010KT P6SM VCTS SCT070CB BKN100
     FM270300 VRB05KT P6SM SCT050 BKN100=



000
FTUS45 KPUB 261720
TAFCOS
TAF
KCOS 261720Z 2618/2718 18009KT P6SM VCTS SCT050CB BKN090
      TEMPO 2621/2624 VRB20G32KT 3SM -TSRA BKN020CB
     FM270200 34007KT P6SM VCTS SCT050CB BKN070
     FM270500 01007KT P6SM BKN090
     FM270800 VRB06KT P6SM BKN015
     FM271600 18007KT P6SM SCT030 BKN050=



000
FTUS45 KPUB 261720
TAFPUB
TAF
KPUB 261720Z 2618/2718 12007KT P6SM BKN100
     FM262200 13012KT P6SM VCTS SCT060CB BKN080
     FM270400 VRB06KT P6SM BKN100
     FM270800 VRB05KT P6SM BKN015
     FM271600 VRB05KT P6SM SCT030 BKN060=



000
FTUS45 KPUB 261559 AAD
TAFPUB
TAF AMD
KPUB 261559Z 2616/2712 11007KT P6SM VCSH SCT020 BKN140
      TEMPO 2616/2617 BKN025
     FM261800 12007KT P6SM BKN100
     FM262200 13012KT P6SM VCTS SCT060CB BKN080
     FM270400 VRB06KT P6SM BKN100
     FM270800 VRB05KT P6SM BKN015=



000
FTUS45 KPUB 261559 AAD
TAFPUB
TAF AMD
KPUB 261559Z 2616/2712 11007KT P6SM VCSH SCT020 BKN140
      TEMPO 2616/2617 BKN025
     FM261800 12007KT P6SM BKN100
     FM262200 13012KT P6SM VCTS SCT060CB BKN080
     FM270400 VRB06KT P6SM BKN100
     FM270800 VRB05KT P6SM BKN015=



000
FTUS45 KPUB 261527 AAC
TAFCOS
TAF AMD
KCOS 261527Z 2615/2712 11008KT P6SM BKN011 BKN140
     FM261600 17007KT P6SM SCT015 BKN140
      TEMPO 2616/2617 BKN015
     FM262100 18009KT P6SM VCTS SCT050CB BKN090
     FM270200 34007KT P6SM VCTS SCT050CB BKN070
     FM270500 01007KT P6SM BKN090
     FM270900 VRB06KT P6SM BKN015=



000
FTUS45 KPUB 261527 AAC
TAFCOS
TAF AMD
KCOS 261527Z 2615/2712 11008KT P6SM BKN011 BKN140
     FM261600 17007KT P6SM SCT015 BKN140
      TEMPO 2616/2617 BKN015
     FM262100 18009KT P6SM VCTS SCT050CB BKN090
     FM270200 34007KT P6SM VCTS SCT050CB BKN070
     FM270500 01007KT P6SM BKN090
     FM270900 VRB06KT P6SM BKN015=



000
FTUS45 KPUB 261459 AAC
TAFPUB
TAF AMD
KPUB 261459Z 2615/2712 VRB06KT P6SM BKN025
     FM261600 11007KT P6SM SCT020 BKN140
      TEMPO 2616/2617 BKN025
     FM261800 12007KT P6SM BKN100
     FM262200 13012KT P6SM VCTS SCT060CB BKN080
     FM270400 VRB06KT P6SM BKN100
     FM270800 VRB05KT P6SM BKN015=



000
FTUS45 KPUB 261347 AAB
TAFCOS
TAF AMD
KCOS 261347Z 2614/2712 11008KT P6SM -DZ OVC012
      TEMPO 2614/2615 OVC009
     FM261500 11008KT P6SM SCT009 BKN015
     FM261600 17007KT P6SM SCT020 BKN140
     FM262100 18009KT P6SM VCTS SCT050CB BKN090
     FM270200 34007KT P6SM VCTS SCT050CB BKN070
     FM270500 01007KT P6SM BKN090
     FM270900 VRB06KT P6SM BKN015=



000
FTUS45 KPUB 261347 AAB
TAFCOS
TAF AMD
KCOS 261347Z 2614/2712 11008KT P6SM -DZ OVC012
      TEMPO 2614/2615 OVC009
     FM261500 11008KT P6SM SCT009 BKN015
     FM261600 17007KT P6SM SCT020 BKN140
     FM262100 18009KT P6SM VCTS SCT050CB BKN090
     FM270200 34007KT P6SM VCTS SCT050CB BKN070
     FM270500 01007KT P6SM BKN090
     FM270900 VRB06KT P6SM BKN015=



000
FTUS45 KPUB 261315 AAA
TAFCOS
TAF AMD
KCOS 261315Z 2613/2712 11008KT P6SM -DZ OVC009
     FM261500 11008KT P6SM SCT009 BKN015
     FM261600 17007KT P6SM SCT020 BKN140
     FM262100 18009KT P6SM VCTS SCT050CB BKN090
     FM270200 34007KT P6SM VCTS SCT050CB BKN070
     FM270500 01007KT P6SM BKN090
     FM270900 VRB06KT P6SM BKN015=



000
FTUS45 KPUB 261315 AAA
TAFCOS
TAF AMD
KCOS 261315Z 2613/2712 11008KT P6SM -DZ OVC009
     FM261500 11008KT P6SM SCT009 BKN015
     FM261600 17007KT P6SM SCT020 BKN140
     FM262100 18009KT P6SM VCTS SCT050CB BKN090
     FM270200 34007KT P6SM VCTS SCT050CB BKN070
     FM270500 01007KT P6SM BKN090
     FM270900 VRB06KT P6SM BKN015=



000
FTUS45 KPUB 261125
TAFPUB
TAF
KPUB 261125Z 2612/2712 VRB06KT P6SM BKN018
     FM261600 11007KT P6SM SCT020 BKN140
     FM261800 12007KT P6SM BKN100
     FM262200 13012KT P6SM VCTS SCT060CB BKN080
     FM270400 VRB06KT P6SM BKN100
     FM270800 VRB05KT P6SM BKN015=



000
FTUS45 KPUB 261125
TAFCOS
TAF
KCOS 261125Z 2612/2712 11008KT P6SM OVC014
     FM261600 17007KT P6SM SCT020 BKN140
     FM262100 18009KT P6SM VCTS SCT050CB BKN090
     FM270200 34007KT P6SM VCTS SCT050CB BKN070
     FM270500 01007KT P6SM BKN090
     FM270900 VRB06KT P6SM BKN015=



000
FTUS45 KPUB 261125
TAFALS
TAF
KALS 261125Z 2612/2712 VRB05KT P6SM SCT080 BKN120
     FM262000 22010KT P6SM VCTS SCT070CB BKN100
     FM270300 VRB05KT P6SM SCT050 BKN100=



000
FTUS45 KPUB 261125
TAFPUB
TAF
KPUB 261125Z 2612/2712 VRB06KT P6SM BKN018
     FM261600 11007KT P6SM SCT020 BKN140
     FM261800 12007KT P6SM BKN100
     FM262200 13012KT P6SM VCTS SCT060CB BKN080
     FM270400 VRB06KT P6SM BKN100
     FM270800 VRB05KT P6SM BKN015=



000
FTUS45 KPUB 261125
TAFCOS
TAF
KCOS 261125Z 2612/2712 11008KT P6SM OVC014
     FM261600 17007KT P6SM SCT020 BKN140
     FM262100 18009KT P6SM VCTS SCT050CB BKN090
     FM270200 34007KT P6SM VCTS SCT050CB BKN070
     FM270500 01007KT P6SM BKN090
     FM270900 VRB06KT P6SM BKN015=



000
FTUS45 KPUB 261125
TAFALS
TAF
KALS 261125Z 2612/2712 VRB05KT P6SM SCT080 BKN120
     FM262000 22010KT P6SM VCTS SCT070CB BKN100
     FM270300 VRB05KT P6SM SCT050 BKN100=



000
FTUS45 KPUB 261002 AAB
TAFPUB
TAF AMD
KPUB 261002Z 2610/2706 10008KT P6SM BKN018
     FM261600 10008KT P6SM SCT020 BKN140
     FM262200 16012KT P6SM VCTS SCT060CB BKN100
     FM262300 27012G22KT P6SM VCTS SCT050CB BKN080
     FM270300 36008KT P6SM VCSH SCT040 BKN060=



000
FTUS45 KPUB 261002 AAB
TAFPUB
TAF AMD
KPUB 261002Z 2610/2706 10008KT P6SM BKN018
     FM261600 10008KT P6SM SCT020 BKN140
     FM262200 16012KT P6SM VCTS SCT060CB BKN100
     FM262300 27012G22KT P6SM VCTS SCT050CB BKN080
     FM270300 36008KT P6SM VCSH SCT040 BKN060=



000
FTUS45 KPUB 260907 AAA
TAFCOS
TAF AMD
KCOS 260907Z 2609/2706 VRB06KT P6SM BKN015
     FM261600 VRB06KT P6SM SCT020 BKN080
     FM262100 16012KT P6SM VCTS SCT040CB BKN080
     FM262300 25012G22KT P6SM VCTS SCT040CB BKN060
     FM270300 02008KT P6SM VCSH SCT030 BKN040=



000
FTUS45 KPUB 260907 AAA
TAFCOS
TAF AMD
KCOS 260907Z 2609/2706 VRB06KT P6SM BKN015
     FM261600 VRB06KT P6SM SCT020 BKN080
     FM262100 16012KT P6SM VCTS SCT040CB BKN080
     FM262300 25012G22KT P6SM VCTS SCT040CB BKN060
     FM270300 02008KT P6SM VCSH SCT030 BKN040=



000
FTUS45 KPUB 260535
TAFALS
TAF
KALS 260535Z 2606/2706 VRB06KT P6SM SCT100 BKN150
     FM262000 21010G20KT P6SM VCTS SCT080CB BKN100
     FM270200 17008KT P6SM VCSH SCT050 BKN060=



000
FTUS45 KPUB 260535
TAFCOS
TAF
KCOS 260535Z 2606/2706 VRB06KT P6SM SCT060 BKN120
     FM261500 14010KT P6SM VCSH SCT050 BKN080
     FM262100 16012KT P6SM VCTS SCT040CB BKN080
     FM262300 25012G22KT P6SM VCTS SCT040CB BKN060
     FM270300 02008KT P6SM VCSH SCT030 BKN040=



000
FTUS45 KPUB 260535
TAFPUB
TAF
KPUB 260535Z 2606/2706 VRB06KT P6SM SCT080 BKN150
     FM260900 VRB06KT P6SM FEW080 SCT100 SCT200
     FM261700 14010KT P6SM SCT080 SCT100 BKN200
     FM262200 16012KT P6SM VCTS SCT060CB BKN100
     FM262300 27012G22KT P6SM VCTS SCT050CB BKN080
     FM270300 36008KT P6SM VCSH SCT040 BKN060=



000
FTUS45 KPUB 260535
TAFPUB
TAF
KPUB 260535Z 2606/2706 VRB06KT P6SM SCT080 BKN150
     FM260900 VRB06KT P6SM FEW080 SCT100 SCT200
     FM261700 14010KT P6SM SCT080 SCT100 BKN200
     FM262200 16012KT P6SM VCTS SCT060CB BKN100
     FM262300 27012G22KT P6SM VCTS SCT050CB BKN080
     FM270300 36008KT P6SM VCSH SCT040 BKN060=



000
FTUS45 KPUB 260535
TAFALS
TAF
KALS 260535Z 2606/2706 VRB06KT P6SM SCT100 BKN150
     FM262000 21010G20KT P6SM VCTS SCT080CB BKN100
     FM270200 17008KT P6SM VCSH SCT050 BKN060=



000
FTUS45 KPUB 260535
TAFCOS
TAF
KCOS 260535Z 2606/2706 VRB06KT P6SM SCT060 BKN120
     FM261500 14010KT P6SM VCSH SCT050 BKN080
     FM262100 16012KT P6SM VCTS SCT040CB BKN080
     FM262300 25012G22KT P6SM VCTS SCT040CB BKN060
     FM270300 02008KT P6SM VCSH SCT030 BKN040=



000
FTUS45 KPUB 260322 AAC
TAFCOS
TAF AMD
KCOS 260322Z 2603/2624 35010KT P6SM VCTS SCT060CB BKN100
     FM260400 02010KT P6SM SCT050 BKN120
     FM260600 02008KT P6SM SCT030 BKN060
     FM261500 14010KT P6SM VCSH SCT050 BKN080
     FM262000 16012KT P6SM VCTS SCT040CB BKN070=



000
FTUS45 KPUB 260322 AAC
TAFCOS
TAF AMD
KCOS 260322Z 2603/2624 35010KT P6SM VCTS SCT060CB BKN100
     FM260400 02010KT P6SM SCT050 BKN120
     FM260600 02008KT P6SM SCT030 BKN060
     FM261500 14010KT P6SM VCSH SCT050 BKN080
     FM262000 16012KT P6SM VCTS SCT040CB BKN070=



000
FTUS45 KPUB 260033 RRA
TAFCOS
TAF
KCOS 260033Z 2601/2624 02010KT P6SM VCTS SCT060CB BKN100
     FM260200 02010KT P6SM SCT050 BKN120
     FM260600 02008KT P6SM SCT030 BKN060
     FM261500 14010KT P6SM VCSH SCT050 BKN080
     FM262000 16012KT P6SM VCTS SCT040CB BKN070=



000
FTUS45 KPUB 260033 RRA
TAFALS
TAF
KALS 260033Z 2601/2624 27008KT P6SM FEW070 SCT080 BKN100
     FM260200 VRB06KT P6SM SCT100 BKN150
     FM261900 21010G20KT P6SM VCTS SCT080CB BKN100=



000
FTUS45 KPUB 260033 RRA
TAFPUB
TAF
KPUB 260033Z 2601/2624 28015G30KT P6SM VCTS SCT040CB BKN080
     FM260200 36012G22KT P6SM SCT040 BKN060
     FM260300 36012KT P6SM SCT050 BKN100
     FM260900 VRB06KT P6SM FEW080 SCT100 SCT200
     FM261700 15010KT P6SM SCT080 SCT100 BKN200
     FM262100 16012KT P6SM VCTS SCT060CB BKN100=



    US Dept of Commerce
    National Oceanic and Atmospheric Administration
    National Weather Service
    1325 East West Highway
    Silver Spring, MD 20910
    Page Author: NWS Internet Services Team
Disclaimer
Information Quality
Credits
Glossary
Privacy Policy
Freedom of Information Act (FOIA)
About Us
Career Opportunities